createdAt,value
2023-04-09T00:01:20.789Z,100634.65
2023-04-09T00:03:48.947Z,100633.02
2023-04-09T00:06:17.244Z,100634.85
2023-04-09T00:08:45.302Z,100632.23
2023-04-09T00:11:13.270Z,100628.52
2023-04-09T00:13:41.364Z,100628.08
2023-04-09T00:16:09.488Z,100627.84
2023-04-09T00:18:37.522Z,100626.13
2023-04-09T00:21:06.018Z,100624.50
2023-04-09T00:23:34.833Z,100623.80
2023-04-09T00:26:02.983Z,100622.22
2023-04-09T00:28:31.431Z,100623.26
2023-04-09T00:30:59.426Z,100625.45
2023-04-09T00:33:27.436Z,100624.16
2023-04-09T00:35:55.632Z,100626.56
2023-04-09T00:38:23.747Z,100626.84
2023-04-09T00:40:51.888Z,100626.23
2023-04-09T00:43:20.052Z,100629.81
2023-04-09T00:45:48.268Z,100627.45
2023-04-09T00:48:17.507Z,100627.68
2023-04-09T00:50:45.514Z,100623.91
2023-04-09T00:53:15.063Z,100626.94
2023-04-09T00:55:43.303Z,100625.33
2023-04-09T00:58:11.684Z,100626.04
2023-04-09T01:00:39.728Z,100624.72
2023-04-09T01:03:08.630Z,100623.17
2023-04-09T01:05:59.036Z,100622.14
2023-04-09T01:08:39.188Z,100622.19
2023-04-09T01:11:49.244Z,100618.77
2023-04-09T01:14:45.345Z,100620.14
2023-04-09T01:17:22.168Z,100617.77
2023-04-09T01:20:10.493Z,100618.05
2023-04-09T01:23:03.279Z,100616.30
2023-04-09T01:25:52.878Z,100615.90
2023-04-09T01:28:27.444Z,100614.99
2023-04-09T01:31:13.592Z,100612.70
2023-04-09T01:33:42.386Z,100611.70
2023-04-09T01:36:11.575Z,100611.55
2023-04-09T01:38:43.362Z,100612.26
2023-04-09T01:41:17.367Z,100610.64
2023-04-09T01:43:46.605Z,100610.80
2023-04-09T01:46:16.389Z,100611.55
2023-04-09T01:48:46.540Z,100607.83
2023-04-09T01:51:14.614Z,100612.88
2023-04-09T01:53:43.406Z,100609.52
2023-04-09T01:56:11.488Z,100612.02
2023-04-09T01:58:40.950Z,100611.28
2023-04-09T02:01:34.239Z,100613.10
2023-04-09T02:04:05.331Z,100619.07
2023-04-09T02:06:42.546Z,100617.21
2023-04-09T02:09:12.658Z,100618.42
2023-04-09T02:11:42.498Z,100616.00
2023-04-09T02:14:12.639Z,100616.30
2023-04-09T02:16:41.626Z,100618.24
2023-04-09T02:19:09.690Z,100615.52
2023-04-09T02:21:37.704Z,100620.02
2023-04-09T02:24:06.016Z,100623.27
2023-04-09T02:26:34.164Z,100614.95
2023-04-09T02:29:02.161Z,100610.59
2023-04-09T02:31:30.341Z,100613.45
2023-04-09T02:33:58.517Z,100612.85
2023-04-09T02:36:27.800Z,100611.11
2023-04-09T02:38:56.650Z,100611.34
2023-04-09T02:41:24.867Z,100611.70
2023-04-09T02:43:53.195Z,100612.20
2023-04-09T02:46:21.228Z,100612.35
2023-04-09T02:48:49.566Z,100614.29
2023-04-09T02:51:17.761Z,100609.85
2023-04-09T02:53:45.916Z,100611.46
2023-04-09T02:56:13.960Z,100610.02
2023-04-09T02:58:41.935Z,100607.37
2023-04-09T03:01:09.981Z,100608.34
2023-04-09T03:03:40.231Z,100613.07
2023-04-09T03:06:08.258Z,100612.17
2023-04-09T03:08:36.312Z,100610.98
2023-04-09T03:11:04.378Z,100609.11
2023-04-09T03:13:32.342Z,100609.78
2023-04-09T03:16:00.592Z,100611.52
2023-04-09T03:18:28.679Z,100611.58
2023-04-09T03:20:56.766Z,100610.98
2023-04-09T03:23:24.838Z,100609.86
2023-04-09T03:26:06.570Z,100609.81
2023-04-09T03:28:52.441Z,100608.45
2023-04-09T03:31:20.879Z,100608.56
2023-04-09T03:33:48.906Z,100607.05
2023-04-09T03:36:19.932Z,100606.21
2023-04-09T03:38:57.275Z,100609.05
2023-04-09T03:41:43.487Z,100609.92
2023-04-09T03:44:14.785Z,100613.13
2023-04-09T03:46:55.895Z,100612.50
2023-04-09T03:49:24.323Z,100616.36
2023-04-09T03:51:53.371Z,100618.61
2023-04-09T03:54:21.360Z,100619.10
2023-04-09T03:56:49.940Z,100621.13
2023-04-09T03:59:20.969Z,100622.05
2023-04-09T04:01:49.362Z,100626.75
2023-04-09T04:04:17.636Z,100629.50
2023-04-09T04:06:50.948Z,100630.45
2023-04-09T04:09:31.393Z,100630.58
2023-04-09T04:12:04.349Z,100630.83
2023-04-09T04:15:07.650Z,100630.85
2023-04-09T04:17:45.657Z,100633.12
2023-04-09T04:20:20.644Z,100631.11
2023-04-09T04:22:55.369Z,100633.34
2023-04-09T04:25:25.159Z,100635.00
2023-04-09T04:27:55.020Z,100634.41
2023-04-09T04:30:25.338Z,100639.54
2023-04-09T04:32:59.346Z,100643.26
2023-04-09T04:35:29.030Z,100644.90
2023-04-09T04:37:59.020Z,100643.85
2023-04-09T04:40:28.418Z,100649.15
2023-04-09T04:43:00.195Z,100649.78
2023-04-09T04:45:29.087Z,100648.33
2023-04-09T04:48:03.542Z,100647.27
2023-04-09T04:50:32.762Z,100651.52
2023-04-09T04:53:07.330Z,100649.64
2023-04-09T04:55:42.255Z,100652.04
2023-04-09T04:58:12.872Z,100652.70
2023-04-09T05:00:45.985Z,100650.02
2023-04-09T05:03:15.392Z,100652.00
2023-04-09T05:06:09.681Z,100651.73
2023-04-09T05:08:43.035Z,100653.47
2023-04-09T05:11:18.148Z,100653.52
2023-04-09T05:13:48.293Z,100653.16
2023-04-09T05:16:20.873Z,100653.61
2023-04-09T05:19:00.531Z,100657.19
2023-04-09T05:21:28.593Z,100660.59
2023-04-09T05:23:57.717Z,100666.92
2023-04-09T05:26:26.920Z,100669.98
2023-04-09T05:28:58.135Z,100676.29
2023-04-09T05:31:26.722Z,100673.17
2023-04-09T05:34:01.853Z,100671.90
2023-04-09T05:36:40.151Z,100670.50
2023-04-09T05:39:08.289Z,100676.88
2023-04-09T05:41:38.769Z,100681.20
2023-04-09T05:44:33.192Z,100682.84
2023-04-09T05:47:14.165Z,100682.85
2023-04-09T05:49:46.713Z,100679.95
2023-04-09T05:52:17.184Z,100681.91
2023-04-09T05:54:45.341Z,100690.68
2023-04-09T05:57:15.433Z,100695.67
2023-04-09T05:59:45.385Z,100691.91
2023-04-09T06:02:13.490Z,100692.36
2023-04-09T06:04:42.008Z,100689.97
2023-04-09T06:07:11.199Z,100694.52
2023-04-09T06:09:39.200Z,100697.49
2023-04-09T06:12:07.232Z,100699.77
2023-04-09T06:14:35.165Z,100701.32
2023-04-09T06:17:03.848Z,100704.25
2023-04-09T06:19:31.809Z,100702.65
2023-04-09T06:22:02.327Z,100707.36
2023-04-09T06:24:33.981Z,100706.39
2023-04-09T06:27:02.277Z,100705.73
2023-04-09T06:29:30.269Z,100710.52
2023-04-09T06:31:58.221Z,100711.56
2023-04-09T06:34:26.207Z,100708.48
2023-04-09T06:36:54.226Z,100708.09
2023-04-09T06:39:22.303Z,100711.31
2023-04-09T06:41:50.624Z,100710.65
2023-04-09T06:44:36.073Z,100706.86
2023-04-09T06:47:04.030Z,100705.60
2023-04-09T06:49:32.026Z,100707.06
2023-04-09T06:52:00.085Z,100706.03
2023-04-09T06:54:28.162Z,100707.25
2023-04-09T06:56:56.842Z,100703.99
2023-04-09T06:59:25.015Z,100707.59
2023-04-09T07:01:54.548Z,100707.04
2023-04-09T07:04:22.910Z,100704.49
2023-04-09T07:06:52.772Z,100707.36
2023-04-09T07:09:20.949Z,100711.20
2023-04-09T07:11:49.572Z,100710.23
2023-04-09T07:14:17.776Z,100710.48
2023-04-09T07:16:46.686Z,100712.60
2023-04-09T07:19:14.742Z,100712.18
2023-04-09T07:21:44.804Z,100714.06
2023-04-09T07:24:12.834Z,100718.19
2023-04-09T07:26:41.583Z,100717.94
2023-04-09T07:29:09.534Z,100717.23
2023-04-09T07:31:37.781Z,100717.18
2023-04-09T07:34:06.244Z,100719.33
2023-04-09T07:36:36.092Z,100721.24
2023-04-09T07:39:04.300Z,100719.00
2023-04-09T07:41:34.384Z,100717.27
2023-04-09T07:44:06.392Z,100717.98
2023-04-09T07:46:35.932Z,100714.77
2023-04-09T07:49:03.974Z,100711.58
2023-04-09T07:51:32.371Z,100711.86
2023-04-09T07:54:01.717Z,100707.48
2023-04-09T07:56:29.724Z,100708.52
2023-04-09T07:58:58.096Z,100706.63
2023-04-09T08:01:26.732Z,100708.47
2023-04-09T08:03:59.936Z,100707.16
2023-04-09T08:06:29.831Z,100711.73
2023-04-09T08:08:57.907Z,100713.33
2023-04-09T08:11:28.136Z,100717.77
2023-04-09T08:13:57.306Z,100723.23
2023-04-09T08:16:25.425Z,100719.23
2023-04-09T08:18:54.655Z,100714.29
2023-04-09T08:21:36.865Z,100713.83
2023-04-09T08:24:20.648Z,100714.70
2023-04-09T08:26:48.854Z,100715.81
2023-04-09T08:29:16.925Z,100718.01
2023-04-09T08:31:45.028Z,100717.92
2023-04-09T08:34:15.259Z,100717.47
2023-04-09T08:36:46.574Z,100718.90
2023-04-09T08:39:16.720Z,100720.96
2023-04-09T08:41:47.775Z,100719.08
2023-04-09T08:44:16.761Z,100721.36
2023-04-09T08:46:44.918Z,100724.96
2023-04-09T08:49:13.000Z,100728.70
2023-04-09T08:51:46.423Z,100726.86
2023-04-09T08:54:20.234Z,100730.36
2023-04-09T08:56:48.625Z,100734.95
2023-04-09T08:59:19.862Z,100733.17
2023-04-09T09:01:54.559Z,100730.04
2023-04-09T09:04:23.132Z,100734.10
2023-04-09T09:06:51.483Z,100735.95
2023-04-09T09:09:19.768Z,100730.52
2023-04-09T09:11:51.187Z,100724.34
2023-04-09T09:14:19.900Z,100724.38
2023-04-09T09:16:57.916Z,100730.05
2023-04-09T09:19:26.662Z,100729.05
2023-04-09T09:21:59.862Z,100727.89
2023-04-09T09:24:28.253Z,100725.98
2023-04-09T09:26:58.972Z,100725.23
2023-04-09T09:29:28.281Z,100722.81
2023-04-09T09:31:56.744Z,100721.30
2023-04-09T09:34:25.757Z,100716.55
2023-04-09T09:36:54.044Z,100717.73
2023-04-09T09:39:22.410Z,100717.29
2023-04-09T09:42:08.291Z,100713.89
2023-04-09T09:44:38.308Z,100712.67
2023-04-09T09:47:07.366Z,100719.55
2023-04-09T09:49:36.763Z,100717.62
2023-04-09T09:52:09.967Z,100713.72
2023-04-09T09:54:42.860Z,100709.98
2023-04-09T09:58:06.335Z,100713.88
2023-04-09T10:00:40.236Z,100713.18
2023-04-09T10:03:22.432Z,100713.55
2023-04-09T10:08:54.749Z,100712.43
2023-04-09T10:11:25.843Z,100713.81
2023-04-09T10:14:01.564Z,100712.27
2023-04-09T10:16:42.174Z,100710.63
2023-04-09T10:19:42.225Z,100708.56
2023-04-09T10:22:20.920Z,100711.02
2023-04-09T10:25:16.177Z,100713.42
2023-04-09T10:27:49.350Z,100712.90
2023-04-09T10:30:36.949Z,100715.79
2023-04-09T10:33:16.082Z,100711.27
2023-04-09T10:35:58.572Z,100713.64
2023-04-09T10:38:41.644Z,100711.27
2023-04-09T10:41:22.574Z,100713.73
2023-04-09T10:43:51.134Z,100718.39
2023-04-09T10:46:37.786Z,100714.89
2023-04-09T10:49:15.296Z,100709.95
2023-04-09T10:52:12.803Z,100710.01
2023-04-09T10:54:44.107Z,100706.65
2023-04-09T10:57:19.891Z,100709.65
2023-04-09T10:59:57.434Z,100710.71
2023-04-09T11:02:39.297Z,100703.73
2023-04-09T11:05:32.639Z,100701.94
2023-04-09T11:08:04.432Z,100704.27
2023-04-09T11:11:08.450Z,100704.55
2023-04-09T11:13:44.235Z,100702.14
2023-04-09T11:16:24.066Z,100702.07
2023-04-09T11:18:59.569Z,100701.12
2023-04-09T11:21:31.940Z,100699.55
2023-04-09T11:23:59.975Z,100699.20
2023-04-09T11:26:36.516Z,100697.25
2023-04-09T11:29:59.682Z,100694.70
2023-04-09T11:32:31.589Z,100695.70
2023-04-09T11:34:59.702Z,100696.48
2023-04-09T11:37:28.036Z,100694.23
2023-04-09T11:40:10.150Z,100694.89
2023-04-09T11:42:41.143Z,100695.23
2023-04-09T11:45:18.839Z,100689.21
2023-04-09T11:47:49.900Z,100692.52
2023-04-09T11:50:26.268Z,100688.98
2023-04-09T11:53:26.782Z,100693.20
2023-04-09T11:56:35.378Z,100688.52
2023-04-09T11:59:15.453Z,100688.73
2023-04-09T12:01:50.008Z,100688.62
2023-04-09T12:04:22.028Z,100692.30
2023-04-09T12:06:50.508Z,100692.46
2023-04-09T12:09:21.292Z,100695.54
2023-04-09T12:11:49.521Z,100693.14
2023-04-09T12:14:22.480Z,100695.38
2023-04-09T12:16:56.675Z,100692.44
2023-04-09T12:19:29.339Z,100689.39
2023-04-09T12:21:58.585Z,100682.66
2023-04-09T12:24:28.736Z,100687.06
2023-04-09T12:27:13.859Z,100683.61
2023-04-09T12:29:42.027Z,100681.70
2023-04-09T12:32:14.653Z,100683.58
2023-04-09T12:34:57.302Z,100680.00
2023-04-09T12:37:25.565Z,100676.66
2023-04-09T12:39:56.833Z,100676.47
2023-04-09T12:42:57.742Z,100674.29
2023-04-09T12:46:28.421Z,100670.20
2023-04-09T12:49:07.471Z,100667.64
2023-04-09T12:55:07.811Z,100666.91
2023-04-09T12:57:37.695Z,100666.08
2023-04-09T13:00:31.341Z,100662.94
2023-04-09T13:03:00.025Z,100658.43
2023-04-09T13:05:28.953Z,100655.86
2023-04-09T13:08:04.875Z,100655.27
2023-04-09T13:10:33.394Z,100651.27
2023-04-09T13:13:01.496Z,100647.02
2023-04-09T13:18:47.379Z,100647.86
2023-04-09T13:21:18.823Z,100645.76
2023-04-09T13:23:54.529Z,100642.31
2023-04-09T13:26:22.595Z,100639.05
2023-04-09T13:29:08.176Z,100640.63
2023-04-09T13:31:36.972Z,100637.23
2023-04-09T13:34:06.552Z,100640.42
2023-04-09T13:37:07.025Z,100637.63
2023-04-09T13:39:35.370Z,100633.86
2023-04-09T13:42:12.776Z,100633.98
2023-04-09T13:44:45.997Z,100633.02
2023-04-09T13:47:16.076Z,100630.42
2023-04-09T13:52:38.782Z,100627.66
2023-04-09T13:55:36.975Z,100627.38
2023-04-09T13:58:09.144Z,100622.80
2023-04-09T14:01:34.348Z,100626.06
2023-04-09T14:03:44.959Z,100624.59
2023-04-09T14:06:15.924Z,100623.14
2023-04-09T14:08:46.650Z,100620.73
2023-04-09T14:11:16.745Z,100618.16
2023-04-09T14:13:49.978Z,100614.85
2023-04-09T14:16:21.112Z,100613.44
2023-04-09T14:18:49.756Z,100609.67
2023-04-09T14:21:18.521Z,100605.11
2023-04-09T14:24:26.371Z,100606.09
2023-04-09T14:26:54.536Z,100607.34
2023-04-09T14:29:22.755Z,100606.30
2023-04-09T14:31:51.873Z,100606.08
2023-04-09T14:34:23.737Z,100609.72
2023-04-09T14:36:59.069Z,100605.82
2023-04-09T14:39:28.829Z,100601.67
2023-04-09T14:41:59.926Z,100598.88
2023-04-09T15:11:47.247Z,100590.25
2023-04-09T15:14:15.972Z,100587.29
2023-04-09T15:16:44.409Z,100586.29
2023-04-09T15:19:14.435Z,100584.98
2023-04-09T15:24:47.755Z,100577.27
2023-04-09T15:27:23.580Z,100581.73
2023-04-09T15:29:55.339Z,100581.27
2023-04-09T15:32:26.018Z,100579.45
2023-04-09T15:38:40.796Z,100577.81
2023-04-09T15:41:45.607Z,100580.66
2023-04-09T15:44:39.580Z,100583.11
2023-04-09T15:47:15.926Z,100581.49
2023-04-09T15:49:48.313Z,100581.96
2023-04-09T15:52:36.770Z,100579.80
2023-04-09T15:55:08.008Z,100581.54
2023-04-09T15:57:39.376Z,100583.86
2023-04-09T16:00:10.976Z,100581.43
2023-04-09T16:02:40.956Z,100581.81
2023-04-09T16:05:09.522Z,100583.01
2023-04-09T16:07:41.000Z,100583.71
2023-04-09T16:10:12.094Z,100583.57
2023-04-09T16:12:54.833Z,100582.88
2023-04-09T16:15:26.272Z,100582.45
2023-04-09T16:17:54.801Z,100584.20
2023-04-09T16:20:44.066Z,100582.98
2023-04-09T16:23:12.294Z,100585.50
2023-04-09T16:25:40.366Z,100587.06
2023-04-09T16:28:11.141Z,100585.11
2023-04-09T16:30:57.129Z,100585.02
2023-04-09T16:33:26.006Z,100585.48
2023-04-09T16:35:54.336Z,100590.16
2023-04-09T16:38:52.295Z,100590.80
2023-04-09T16:41:53.172Z,100589.26
2023-04-09T16:44:21.693Z,100591.49
2023-04-09T16:46:53.057Z,100591.16
2023-04-09T16:49:21.120Z,100597.30
2023-04-09T16:52:01.780Z,100597.17
2023-04-09T16:54:32.116Z,100594.69
2023-04-09T16:57:18.778Z,100594.39
2023-04-09T17:00:31.425Z,100593.30
2023-04-09T17:04:23.664Z,100592.91
2023-04-09T17:06:18.171Z,100593.23
2023-04-09T17:12:48.965Z,100595.98
2023-04-09T17:15:18.837Z,100596.64
2023-04-09T17:17:51.841Z,100595.95
2023-04-09T17:20:49.271Z,100599.21
2023-04-09T17:23:55.991Z,100600.21
2023-04-09T17:26:56.078Z,100605.43
2023-04-09T17:29:34.593Z,100606.79
2023-04-09T17:32:08.522Z,100607.84
2023-04-09T17:35:54.695Z,100605.39
2023-04-09T17:41:50.478Z,100614.35
2023-04-09T17:44:46.805Z,100615.80
2023-04-09T17:50:22.364Z,100620.90
2023-04-09T17:53:31.173Z,100623.23
2023-04-09T18:00:05.383Z,100619.20
2023-04-09T18:05:25.726Z,100627.98
2023-04-09T18:07:41.314Z,100629.39
2023-04-09T18:13:25.709Z,100635.67
2023-04-09T18:13:39.031Z,100637.84
2023-04-09T18:16:34.123Z,100639.80
2023-04-09T18:29:11.180Z,100651.50
2023-04-09T18:31:39.847Z,100652.04
2023-04-09T18:34:08.412Z,100651.85
2023-04-09T18:36:36.686Z,100652.66
2023-04-09T18:39:05.123Z,100651.66
2023-04-09T18:41:38.181Z,100655.46
2023-04-09T18:44:10.506Z,100655.03
2023-04-09T18:46:54.461Z,100657.73
2023-04-09T18:49:24.312Z,100657.73
2023-04-09T18:52:15.957Z,100658.79
2023-04-09T18:54:44.372Z,100657.67
2023-04-09T18:57:17.570Z,100662.61
2023-04-09T19:03:28.696Z,100666.23
2023-04-09T19:06:12.937Z,100665.13
2023-04-09T19:09:00.615Z,100664.01
2023-04-09T19:11:29.067Z,100664.38
2023-04-09T19:13:57.242Z,100659.89
2023-04-09T19:16:28.369Z,100659.67
2023-04-09T19:18:56.831Z,100660.92
2023-04-09T19:21:26.641Z,100661.18
2023-04-09T19:23:56.771Z,100657.94
2023-04-09T19:26:25.249Z,100657.70
2023-04-09T19:28:53.767Z,100659.10
2023-04-09T19:31:23.885Z,100659.05
2023-04-09T19:33:52.449Z,100652.34
2023-04-09T19:36:20.844Z,100656.09
2023-04-09T19:38:58.518Z,100658.36
2023-04-09T19:41:26.560Z,100658.49
2023-04-09T19:43:54.772Z,100658.91
2023-04-09T19:46:32.804Z,100657.61
2023-04-09T19:49:01.083Z,100658.35
2023-04-09T19:51:29.173Z,100659.95
2023-04-09T19:53:57.136Z,100660.26
2023-04-09T19:56:35.749Z,100660.94
2023-04-09T19:59:05.913Z,100658.11
2023-04-09T20:01:37.457Z,100656.33
2023-04-09T20:04:05.832Z,100654.42
2023-04-09T20:06:35.628Z,100654.04
2023-04-09T20:09:05.757Z,100655.04
2023-04-09T20:11:34.446Z,100655.33
2023-04-09T20:14:03.130Z,100654.27
2023-04-09T20:16:31.469Z,100654.27
2023-04-09T20:19:01.779Z,100654.45
2023-04-09T20:21:32.834Z,100653.74
2023-04-09T20:24:05.194Z,100654.89
2023-04-09T20:26:33.325Z,100658.91
2023-04-09T20:29:02.071Z,100661.00
2023-04-09T20:31:31.120Z,100659.16
2023-04-09T20:33:59.724Z,100657.09
2023-04-09T20:36:27.918Z,100653.56
2023-04-09T20:38:58.099Z,100650.75
2023-04-09T20:41:26.364Z,100650.11
2023-04-09T20:43:59.365Z,100651.08
2023-04-09T20:46:29.345Z,100650.29
2023-04-09T20:48:57.420Z,100651.02
2023-04-09T20:51:27.255Z,100647.38
2023-04-09T20:53:55.332Z,100646.33
2023-04-09T20:56:26.325Z,100646.00
2023-04-09T20:58:54.733Z,100648.91
2023-04-09T21:01:23.803Z,100648.46
2023-04-09T21:03:52.265Z,100650.98
2023-04-09T21:06:21.026Z,100652.11
2023-04-09T21:08:49.579Z,100654.02
2023-04-09T21:12:00.277Z,100655.19
2023-04-09T21:14:45.146Z,100655.10
2023-04-09T21:17:13.386Z,100654.79
2023-04-09T21:19:41.568Z,100656.91
2023-04-09T21:22:12.266Z,100655.54
2023-04-09T21:24:58.088Z,100657.59
2023-04-09T21:27:26.329Z,100654.08
2023-04-09T21:29:57.140Z,100652.55
2023-04-09T21:32:25.753Z,100656.50
2023-04-09T21:34:55.100Z,100650.52
2023-04-09T21:37:23.331Z,100653.18
2023-04-09T21:39:51.274Z,100653.50
2023-04-09T21:42:19.279Z,100652.89
2023-04-09T21:44:49.886Z,100651.67
2023-04-09T21:47:24.150Z,100651.18
2023-04-09T21:49:54.020Z,100650.02
2023-04-09T21:52:22.704Z,100649.39
2023-04-09T21:54:51.082Z,100651.98
2023-04-09T21:57:19.099Z,100659.83
2023-04-09T21:59:47.216Z,100660.14
2023-04-09T22:02:17.505Z,100659.70
2023-04-09T22:04:45.848Z,100659.76
2023-04-09T22:07:13.805Z,100660.88
2023-04-09T22:09:41.888Z,100659.15
2023-04-09T22:12:10.018Z,100659.75
2023-04-09T22:14:38.581Z,100659.86
2023-04-09T22:17:08.960Z,100662.58
2023-04-09T22:19:36.971Z,100665.98
2023-04-09T22:22:05.068Z,100668.62
2023-04-09T22:24:33.944Z,100670.39
2023-04-09T22:27:02.299Z,100673.25
2023-04-09T22:29:30.684Z,100674.17
2023-04-09T22:31:58.571Z,100678.02
2023-04-09T22:34:26.631Z,100677.77
2023-04-09T22:36:54.947Z,100675.00
2023-04-09T22:39:22.976Z,100673.65
2023-04-09T22:41:51.008Z,100675.34
2023-04-09T22:44:19.207Z,100674.79
2023-04-09T22:46:47.474Z,100674.86
2023-04-09T22:49:15.989Z,100675.70
2023-04-09T22:51:44.052Z,100674.09
2023-04-09T22:54:12.217Z,100671.04
2023-04-09T22:56:40.496Z,100670.43
2023-04-09T22:59:08.500Z,100670.48
2023-04-09T23:01:36.890Z,100666.03
2023-04-09T23:04:04.936Z,100666.84
2023-04-09T23:06:32.971Z,100667.46
2023-04-09T23:09:00.962Z,100669.94
2023-04-09T23:11:29.197Z,100669.32
2023-04-09T23:13:59.608Z,100665.02
2023-04-09T23:16:27.986Z,100662.36
2023-04-09T23:18:56.099Z,100663.40
2023-04-09T23:21:24.362Z,100660.58
2023-04-09T23:23:52.523Z,100660.88
2023-04-09T23:26:20.829Z,100656.29
2023-04-09T23:28:48.741Z,100654.74
2023-04-09T23:31:16.968Z,100652.52
2023-04-09T23:33:45.666Z,100647.42
2023-04-09T23:36:13.982Z,100650.07
2023-04-09T23:38:43.858Z,100650.92
2023-04-09T23:41:11.988Z,100653.67
2023-04-09T23:43:41.436Z,100653.11
2023-04-09T23:46:09.550Z,100646.73
2023-04-09T23:48:37.655Z,100647.70
2023-04-09T23:51:06.036Z,100644.13
2023-04-09T23:53:34.244Z,100646.21
2023-04-09T23:56:02.421Z,100641.60
2023-04-09T23:58:30.582Z,100637.98
